Waukomis, Oklahoma
Current Conditions -  °F | °C
As of 8:58 AM on Friday 31 Oct 2014 (Local Time) from KEND Reporting Station
Clear Clear  
Wind Chill: 35°   Ceiling: Unl
Heat Index: 43°   Visibility: 10mi
Dew Point: 37°   Wind: 17mph
Humidity: 81%   Direction: 360°N
Pressure: 30.43"   Gusts: NA
Location:  36.28°N, 97.9°W
Report Text: KEND 311358Z AUTO 36015KT 10SM CLR 06/03 A3043 RMK AO2 SLP308 T00590028 $
Loading
Personal Weather Stations






























Interactive Weather Map
Tropical Storm Tracking
New forecast layout! Learn more

10-Day Weather Forecast

Advertisements
Track Severe Weather on mobile